Time;durP1;ratioP1;P1;durP2;ratioP2;P2;SDS_P1;SDS_P2;PMS_P1;PMS_P2;Temp;Humidity;BMP_temperature;BMP_pressure;BME280_temperature;BME280_humidity;BME280_pressure;Samples;Min_cycle;Max_cycle;Signal;HPM_P1;HPM_P2
2022/10/19 00:01:45;;;;;;;0.70;0.70;;;;;;;;;;5080515;28;20537;-91
2022/10/19 00:04:14;;;;;;;1.63;1.02;;;;;;;;;;5091637;28;20484;-93
2022/10/19 00:06:42;;;;;;;2.05;1.02;;;;;;;;;;5086731;28;20047;-94
2022/10/19 00:09:11;;;;;;;1.40;0.70;;;;;;;;;;5087047;28;20048;-93
2022/10/19 00:11:42;;;;;;;2.13;1.15;;;;;;;;;;5098183;28;20044;-93
2022/10/19 00:14:12;;;;;;;1.05;0.70;;;;;;;;;;5082302;28;20052;-93
2022/10/19 00:16:41;;;;;;;2.72;0.90;;;;;;;;;;5088644;28;20048;-89
2022/10/19 00:19:12;;;;;;;2.88;1.15;;;;;;;;;;5086172;28;20044;-94
2022/10/19 00:21:40;;;;;;;2.58;0.95;;;;;;;;;;5084843;28;20520;-93
2022/10/19 00:24:09;;;;;;;2.60;1.15;;;;;;;;;;5084735;28;20657;-94
2022/10/19 00:26:37;;;;;;;4.90;1.73;;;;;;;;;;5088096;28;20052;-93
2022/10/19 00:29:07;;;;;;;1.63;1.10;;;;;;;;;;5084530;28;20044;-95
2022/10/19 00:31:36;;;;;;;2.53;1.15;;;;;;;;;;5088530;28;20101;-88
2022/10/19 00:34:04;;;;;;;2.78;0.98;;;;;;;;;;5083322;28;20041;-91
2022/10/19 00:36:33;;;;;;;0.90;0.68;;;;;;;;;;5089394;28;20052;-92
2022/10/19 00:39:02;;;;;;;1.58;1.08;;;;;;;;;;5094850;28;20451;-94
2022/10/19 00:41:32;;;;;;;6.38;1.23;;;;;;;;;;5088148;28;20052;-93
2022/10/19 00:44:01;;;;;;;1.65;1.25;;;;;;;;;;5098508;28;20047;-93
2022/10/19 00:46:31;;;;;;;0.80;0.57;;;;;;;;;;5086887;28;20055;-91
2022/10/19 00:49:01;;;;;;;4.35;0.98;;;;;;;;;;5084874;28;20044;-93
2022/10/19 00:51:34;;;;;;;2.35;0.80;;;;;;;;;;5088845;28;20048;-92
2022/10/19 00:54:03;;;;;;;0.88;0.60;;;;;;;;;;5083066;28;20077;-92
2022/10/19 00:56:31;;;;;;;4.32;1.50;;;;;;;;;;5088897;28;20055;-92
2022/10/19 00:59:00;;;;;;;1.33;0.70;;;;;;;;;;5088189;28;20397;-93
2022/10/19 01:01:29;;;;;;;1.23;1.00;;;;;;;;;;5091326;28;20048;-92
2022/10/19 01:03:59;;;;;;;3.22;1.35;;;;;;;;;;5089063;28;20052;-92
2022/10/19 01:06:28;;;;;;;1.42;0.93;;;;;;;;;;5087140;28;20102;-92
2022/10/19 01:08:56;;;;;;;3.08;1.55;;;;;;;;;;5083499;28;20063;-88
2022/10/19 01:11:32;;;;;;;5.68;1.17;;;;;;;;;;5075683;28;20052;-91
2022/10/19 01:14:07;;;;;;;3.22;1.40;;;;;;;;;;5080625;28;20047;-92
2022/10/19 01:16:41;;;;;;;0.88;0.50;;;;;;;;;;5082510;28;20070;-92
2022/10/19 01:19:19;;;;;;;2.00;1.13;;;;;;;;;;5089950;28;20391;-91
2022/10/19 01:21:49;;;;;;;3.55;1.45;;;;;;;;;;5090823;28;20055;-91
2022/10/19 01:24:33;;;;;;;1.85;1.40;;;;;;;;;;5082143;28;20431;-94
2022/10/19 01:27:20;;;;;;;1.23;0.70;;;;;;;;;;5091359;28;20200;-88
2022/10/19 01:33:27;;;;;;;1.65;0.93;;;;;;;;;;5036383;28;21176;-92
2022/10/19 01:36:01;;;;;;;1.48;0.88;;;;;;;;;;5050946;28;20049;-92
2022/10/19 01:38:33;;;;;;;1.35;0.70;;;;;;;;;;5048379;28;20048;-93
2022/10/19 01:41:06;;;;;;;3.30;1.45;;;;;;;;;;5044377;28;20497;-92
2022/10/19 01:43:40;;;;;;;2.53;1.50;;;;;;;;;;5051781;28;20045;-92
2022/10/19 01:46:12;;;;;;;1.95;1.20;;;;;;;;;;5057236;28;20489;-92
2022/10/19 01:48:42;;;;;;;1.33;0.80;;;;;;;;;;5049939;28;20053;-92
2022/10/19 01:51:13;;;;;;;4.55;1.42;;;;;;;;;;5071683;28;20048;-93
2022/10/19 01:53:43;;;;;;;7.03;1.08;;;;;;;;;;5092125;28;20055;-92
2022/10/19 01:56:12;;;;;;;2.20;1.00;;;;;;;;;;5086658;28;20045;-92
2022/10/19 01:58:41;;;;;;;2.97;1.33;;;;;;;;;;5091339;28;20048;-92
2022/10/19 02:01:11;;;;;;;3.45;1.25;;;;;;;;;;5091018;28;20048;-94
2022/10/19 02:03:40;;;;;;;1.50;1.13;;;;;;;;;;5086480;28;20071;-92
2022/10/19 02:06:10;;;;;;;1.83;1.25;;;;;;;;;;5082225;28;20055;-93
2022/10/19 02:08:41;;;;;;;2.30;1.33;;;;;;;;;;5085006;28;20086;-90
2022/10/19 02:11:09;;;;;;;2.25;1.00;;;;;;;;;;5086891;28;20048;-92
2022/10/19 02:13:39;;;;;;;1.75;0.98;;;;;;;;;;5089246;28;20137;-91
2022/10/19 02:16:09;;;;;;;2.58;1.48;;;;;;;;;;5089022;28;20048;-93
2022/10/19 02:18:41;;;;;;;2.88;1.05;;;;;;;;;;5091622;28;20044;-91
2022/10/19 02:21:09;;;;;;;2.22;1.30;;;;;;;;;;5091747;28;20480;-92
2022/10/19 02:23:38;;;;;;;2.97;1.23;;;;;;;;;;5088151;28;20044;-91
2022/10/19 02:26:06;;;;;;;2.78;1.38;;;;;;;;;;5091663;28;20400;-91
2022/10/19 02:28:35;;;;;;;5.35;1.17;;;;;;;;;;5089198;28;20101;-93
2022/10/19 02:31:03;;;;;;;3.03;1.10;;;;;;;;;;5084889;28;20040;-92
2022/10/19 02:33:32;;;;;;;4.50;1.38;;;;;;;;;;5086482;28;20048;-94
2022/10/19 02:36:01;;;;;;;1.70;1.17;;;;;;;;;;5089647;28;20048;-93
2022/10/19 02:38:30;;;;;;;1.88;0.88;;;;;;;;;;5088952;28;20048;-86
2022/10/19 02:41:08;;;;;;;4.20;1.10;;;;;;;;;;5080045;28;20052;-92
2022/10/19 02:43:38;;;;;;;2.80;1.30;;;;;;;;;;5091411;28;20048;-94
2022/10/19 02:46:08;;;;;;;2.75;1.10;;;;;;;;;;5082415;28;20047;-89
2022/10/19 02:48:38;;;;;;;3.95;1.35;;;;;;;;;;5092918;28;20056;-93
2022/10/19 02:51:27;;;;;;;4.22;1.13;;;;;;;;;;5085630;28;20046;-91
2022/10/19 02:53:55;;;;;;;2.83;1.65;;;;;;;;;;5077912;28;20053;-91
2022/10/19 02:56:27;;;;;;;2.28;1.35;;;;;;;;;;5085048;28;20143;-93
2022/10/19 02:58:55;;;;;;;2.75;1.42;;;;;;;;;;5083058;28;20051;-94
2022/10/19 03:01:24;;;;;;;1.63;1.02;;;;;;;;;;5091579;28;20051;-91
2022/10/19 03:03:52;;;;;;;1.90;1.40;;;;;;;;;;5084570;28;20135;-93
2022/10/19 03:06:22;;;;;;;2.28;1.30;;;;;;;;;;5100789;28;20044;-93
2022/10/19 03:08:50;;;;;;;3.58;1.52;;;;;;;;;;5086662;28;20044;-93
2022/10/19 03:11:18;;;;;;;3.30;1.48;;;;;;;;;;5088767;28;20051;-90
2022/10/19 03:13:47;;;;;;;2.28;1.27;;;;;;;;;;5087269;28;20044;-93
2022/10/19 03:16:20;;;;;;;2.13;1.42;;;;;;;;;;5091990;28;20409;-93
2022/10/19 03:18:48;;;;;;;6.25;2.00;;;;;;;;;;5091951;28;20571;-92
2022/10/19 03:21:17;;;;;;;2.28;1.08;;;;;;;;;;5089491;28;20048;-93
2022/10/19 03:23:46;;;;;;;0.95;0.85;;;;;;;;;;5087060;28;20048;-91
2022/10/19 03:26:16;;;;;;;3.03;1.70;;;;;;;;;;5092565;28;20048;-89
2022/10/19 03:28:44;;;;;;;4.75;2.05;;;;;;;;;;5089579;28;20122;-94
2022/10/19 03:31:12;;;;;;;6.30;1.80;;;;;;;;;;5088766;28;20072;-94
2022/10/19 03:33:41;;;;;;;4.75;2.00;;;;;;;;;;5082724;28;20035;-94
2022/10/19 03:36:21;;;;;;;5.57;1.48;;;;;;;;;;5091270;28;20519;-93
2022/10/19 03:38:55;;;;;;;3.88;2.38;;;;;;;;;;5091147;28;20044;-93
2022/10/19 03:41:24;;;;;;;2.33;1.50;;;;;;;;;;5083258;28;20044;-93
2022/10/19 03:43:52;;;;;;;1.98;1.35;;;;;;;;;;5089024;28;20062;-93
2022/10/19 03:46:21;;;;;;;5.70;1.55;;;;;;;;;;5090614;28;20044;-91
2022/10/19 03:48:49;;;;;;;5.85;1.67;;;;;;;;;;5090344;28;20047;-93
2022/10/19 03:51:18;;;;;;;2.65;1.35;;;;;;;;;;5089660;28;20044;-92
2022/10/19 03:53:49;;;;;;;3.42;1.35;;;;;;;;;;5091073;28;20043;-92
2022/10/19 03:56:20;;;;;;;4.15;2.00;;;;;;;;;;5080227;28;20044;-92
2022/10/19 03:58:49;;;;;;;3.38;1.38;;;;;;;;;;5087822;28;20044;-91
2022/10/19 04:01:18;;;;;;;3.30;1.50;;;;;;;;;;5083704;28;20468;-93
2022/10/19 04:03:47;;;;;;;2.30;1.27;;;;;;;;;;5081252;28;20052;-92
2022/10/19 04:06:16;;;;;;;2.70;1.38;;;;;;;;;;5089650;28;20048;-92
2022/10/19 04:09:06;;;;;;;7.63;1.98;;;;;;;;;;5090533;28;20468;-93
2022/10/19 04:11:39;;;;;;;3.33;1.20;;;;;;;;;;5088962;28;20044;-94
2022/10/19 04:14:07;;;;;;;5.03;1.67;;;;;;;;;;5090928;28;20044;-94
2022/10/19 04:16:36;;;;;;;6.30;2.75;;;;;;;;;;5082565;28;20055;-91
2022/10/19 04:19:05;;;;;;;2.83;1.27;;;;;;;;;;5088680;28;20044;-93
2022/10/19 04:21:34;;;;;;;3.03;1.63;;;;;;;;;;5079079;28;20060;-95
2022/10/19 04:24:04;;;;;;;3.42;1.10;;;;;;;;;;5089968;28;20051;-92
2022/10/19 04:26:32;;;;;;;2.58;1.38;;;;;;;;;;5083029;28;20040;-94
2022/10/19 04:29:02;;;;;;;2.78;1.55;;;;;;;;;;5089571;28;20044;-90
2022/10/19 04:31:30;;;;;;;5.70;1.67;;;;;;;;;;5089184;28;20098;-94
2022/10/19 04:33:59;;;;;;;11.07;1.80;;;;;;;;;;5099621;28;20499;-91
2022/10/19 04:36:27;;;;;;;3.55;1.63;;;;;;;;;;5076796;28;20049;-94
2022/10/19 04:38:56;;;;;;;4.97;1.98;;;;;;;;;;5091638;28;20036;-94
2022/10/19 04:41:24;;;;;;;3.40;1.67;;;;;;;;;;5084565;28;20046;-93
2022/10/19 04:43:55;;;;;;;3.03;1.60;;;;;;;;;;5095769;28;20079;-95
2022/10/19 04:46:26;;;;;;;5.65;2.00;;;;;;;;;;5088232;28;20062;-93
2022/10/19 04:48:55;;;;;;;2.20;1.30;;;;;;;;;;5084563;28;20047;-92
2022/10/19 04:51:24;;;;;;;3.97;1.45;;;;;;;;;;5085123;28;20067;-93
2022/10/19 04:53:54;;;;;;;2.85;1.65;;;;;;;;;;5094251;28;20295;-95
2022/10/19 04:56:28;;;;;;;6.72;1.95;;;;;;;;;;5089928;28;20054;-92
2022/10/19 04:58:57;;;;;;;3.83;1.85;;;;;;;;;;5089529;28;20072;-92
2022/10/19 05:01:27;;;;;;;5.63;1.42;;;;;;;;;;5072585;28;20052;-91
2022/10/19 05:03:56;;;;;;;4.00;1.63;;;;;;;;;;5095709;28;20048;-90
2022/10/19 05:06:30;;;;;;;3.80;2.00;;;;;;;;;;5076252;28;20049;-87
2022/10/19 05:08:58;;;;;;;3.55;1.88;;;;;;;;;;5082704;28;20460;-89
2022/10/19 05:11:27;;;;;;;3.42;1.58;;;;;;;;;;5096801;28;20083;-88
2022/10/19 05:13:56;;;;;;;2.60;1.35;;;;;;;;;;5081494;28;20052;-90
2022/10/19 05:16:26;;;;;;;5.07;1.80;;;;;;;;;;5088689;28;20056;-91
2022/10/19 05:18:57;;;;;;;3.10;1.52;;;;;;;;;;5089620;28;20054;-91
2022/10/19 05:21:27;;;;;;;2.88;1.88;;;;;;;;;;5091213;28;20048;-90
2022/10/19 05:23:56;;;;;;;2.95;1.48;;;;;;;;;;5087871;28;20039;-90
2022/10/19 05:26:25;;;;;;;4.50;2.08;;;;;;;;;;5083925;28;20052;-91
2022/10/19 05:28:55;;;;;;;3.55;1.80;;;;;;;;;;5092725;28;20047;-90
2022/10/19 05:31:25;;;;;;;3.55;1.75;;;;;;;;;;5083169;28;20086;-90
2022/10/19 05:33:56;;;;;;;2.53;1.55;;;;;;;;;;5079060;28;20472;-90
2022/10/19 05:36:25;;;;;;;2.00;0.98;;;;;;;;;;5082278;28;20139;-90
2022/10/19 05:38:54;;;;;;;5.32;1.55;;;;;;;;;;5087297;28;20051;-90
2022/10/19 05:41:23;;;;;;;3.13;1.05;;;;;;;;;;5095829;28;20051;-91
2022/10/19 05:43:53;;;;;;;3.53;2.00;;;;;;;;;;5097585;28;20056;-90
2022/10/19 05:46:21;;;;;;;3.40;1.92;;;;;;;;;;5080718;28;20044;-87
2022/10/19 05:48:50;;;;;;;3.25;1.60;;;;;;;;;;5083617;28;20064;-87
2022/10/19 05:51:21;;;;;;;4.70;2.17;;;;;;;;;;5089666;28;20488;-89
2022/10/19 05:53:49;;;;;;;5.80;1.30;;;;;;;;;;5089716;28;20056;-88
2022/10/19 05:56:20;;;;;;;4.18;1.63;;;;;;;;;;5081373;28;20059;-88
2022/10/19 05:58:49;;;;;;;7.13;2.33;;;;;;;;;;5077326;28;20044;-87
2022/10/19 06:01:18;;;;;;;4.78;1.60;;;;;;;;;;5082280;28;20067;-87
2022/10/19 06:03:47;;;;;;;8.27;2.28;;;;;;;;;;5082965;28;20367;-87
2022/10/19 06:06:16;;;;;;;6.40;1.73;;;;;;;;;;5085921;28;20082;-89
2022/10/19 06:08:46;;;;;;;5.22;2.17;;;;;;;;;;5099575;28;20043;-89
2022/10/19 06:11:15;;;;;;;3.28;1.90;;;;;;;;;;5084884;28;20048;-87
2022/10/19 06:13:45;;;;;;;3.10;2.05;;;;;;;;;;5093519;28;20044;-86
2022/10/19 06:16:14;;;;;;;2.80;1.77;;;;;;;;;;5095132;28;20048;-87
2022/10/19 06:18:43;;;;;;;4.53;1.90;;;;;;;;;;5097331;28;20052;-87
2022/10/19 06:21:12;;;;;;;2.95;1.55;;;;;;;;;;5083759;28;20566;-88
2022/10/19 06:23:41;;;;;;;6.97;1.67;;;;;;;;;;5092076;28;20078;-87
2022/10/19 06:26:12;;;;;;;3.67;1.25;;;;;;;;;;5085569;28;20086;-87
2022/10/19 06:28:41;;;;;;;3.72;1.48;;;;;;;;;;5090183;28;20056;-84
2022/10/19 06:31:09;;;;;;;5.03;1.83;;;;;;;;;;5073880;28;20045;-88
2022/10/19 06:33:39;;;;;;;3.92;1.70;;;;;;;;;;5090419;28;20106;-87
2022/10/19 06:36:08;;;;;;;5.57;2.08;;;;;;;;;;5082192;28;20083;-88
2022/10/19 06:38:37;;;;;;;2.08;1.40;;;;;;;;;;5087141;28;20083;-88
2022/10/19 06:41:05;;;;;;;5.15;1.85;;;;;;;;;;5088222;28;20363;-87
2022/10/19 06:43:35;;;;;;;6.80;1.88;;;;;;;;;;5090136;28;20048;-87
2022/10/19 06:46:05;;;;;;;6.45;2.17;;;;;;;;;;5088410;28;20036;-87
2022/10/19 06:48:33;;;;;;;9.43;3.55;;;;;;;;;;5080018;28;20056;-87
2022/10/19 06:51:03;;;;;;;5.63;1.80;;;;;;;;;;5094058;28;20055;-87
2022/10/19 06:53:34;;;;;;;2.45;1.40;;;;;;;;;;5091294;28;20048;-87
2022/10/19 06:56:03;;;;;;;2.72;1.42;;;;;;;;;;5081879;28;20127;-87
2022/10/19 06:58:31;;;;;;;5.57;2.00;;;;;;;;;;5088408;28;20046;-87
2022/10/19 07:01:01;;;;;;;3.95;1.98;;;;;;;;;;5092700;28;20052;-87
2022/10/19 07:03:30;;;;;;;3.85;1.80;;;;;;;;;;5083408;28;20070;-88
2022/10/19 07:06:00;;;;;;;5.93;2.53;;;;;;;;;;5088960;28;20040;-89
2022/10/19 07:08:29;;;;;;;5.75;2.30;;;;;;;;;;5086016;28;20512;-87
2022/10/19 07:10:59;;;;;;;5.18;2.17;;;;;;;;;;5073695;28;20053;-87
2022/10/19 07:13:28;;;;;;;5.07;2.30;;;;;;;;;;5085454;28;20052;-86
2022/10/19 07:16:04;;;;;;;6.85;2.63;;;;;;;;;;5090221;28;20051;-88
2022/10/19 07:18:33;;;;;;;3.35;1.50;;;;;;;;;;5083058;28;20051;-85
2022/10/19 07:21:02;;;;;;;6.82;2.83;;;;;;;;;;5087993;28;20044;-87
2022/10/19 07:23:31;;;;;;;8.52;2.30;;;;;;;;;;5081914;28;20129;-87
2022/10/19 07:26:04;;;;;;;6.88;2.65;;;;;;;;;;5090717;28;20051;-89
2022/10/19 07:28:32;;;;;;;5.47;1.95;;;;;;;;;;5084826;28;20232;-87
2022/10/19 07:31:06;;;;;;;7.72;2.53;;;;;;;;;;5091185;28;20078;-88
2022/10/19 07:33:35;;;;;;;4.72;2.42;;;;;;;;;;5084651;28;20131;-88
2022/10/19 07:36:05;;;;;;;11.10;4.18;;;;;;;;;;5085783;28;20506;-88
2022/10/19 07:38:34;;;;;;;5.18;1.70;;;;;;;;;;5091124;28;20087;-88
2022/10/19 07:41:04;;;;;;;8.07;3.00;;;;;;;;;;5092138;28;20056;-88
2022/10/19 07:43:33;;;;;;;7.13;2.65;;;;;;;;;;5091213;28;20048;-88
2022/10/19 07:46:02;;;;;;;5.90;2.15;;;;;;;;;;5092485;28;20500;-89
2022/10/19 07:48:32;;;;;;;10.13;2.90;;;;;;;;;;5090736;28;20052;-88
2022/10/19 07:51:01;;;;;;;8.50;3.08;;;;;;;;;;5081384;28;20058;-87
2022/10/19 07:53:30;;;;;;;9.60;2.83;;;;;;;;;;5090882;28;20457;-88
2022/10/19 07:56:03;;;;;;;11.98;3.83;;;;;;;;;;5080700;28;20139;-88
2022/10/19 07:58:31;;;;;;;9.43;3.28;;;;;;;;;;5088205;28;20319;-86
2022/10/19 08:01:00;;;;;;;9.52;2.90;;;;;;;;;;5081657;28;20083;-88
2022/10/19 08:03:29;;;;;;;6.93;2.53;;;;;;;;;;5091298;28;20083;-88
2022/10/19 08:06:19;;;;;;;6.30;2.80;;;;;;;;;;5090882;28;20050;-88
2022/10/19 08:08:48;;;;;;;6.72;2.38;;;;;;;;;;5083612;28;20048;-88
2022/10/19 08:11:18;;;;;;;6.65;2.85;;;;;;;;;;5081727;28;20051;-88
2022/10/19 08:13:46;;;;;;;10.73;2.70;;;;;;;;;;5090276;28;20484;-88
2022/10/19 08:16:22;;;;;;;8.88;2.88;;;;;;;;;;5090705;28;20497;-89
2022/10/19 08:18:51;;;;;;;11.50;2.72;;;;;;;;;;5071696;28;20053;-88
2022/10/19 08:21:21;;;;;;;7.25;3.03;;;;;;;;;;5091144;28;20047;-88
2022/10/19 08:23:50;;;;;;;6.18;3.55;;;;;;;;;;5088729;28;20048;-87
2022/10/19 08:26:20;;;;;;;10.25;3.00;;;;;;;;;;5076636;28;20077;-88
2022/10/19 08:28:48;;;;;;;6.93;2.78;;;;;;;;;;5086823;28;20081;-88
2022/10/19 08:31:17;;;;;;;10.00;3.25;;;;;;;;;;5091076;28;20056;-87
2022/10/19 08:33:46;;;;;;;7.38;3.03;;;;;;;;;;5091741;28;20048;-87
2022/10/19 08:36:14;;;;;;;6.82;2.42;;;;;;;;;;5090438;28;20396;-87
2022/10/19 08:38:47;;;;;;;7.18;2.58;;;;;;;;;;5093262;28;20474;-86
2022/10/19 08:41:21;;;;;;;8.43;3.20;;;;;;;;;;5092031;28;20052;-87
2022/10/19 08:43:56;;;;;;;10.50;3.85;;;;;;;;;;5094925;28;20091;-87
2022/10/19 08:46:28;;;;;;;6.70;2.55;;;;;;;;;;5093530;28;20496;-87
2022/10/19 08:48:57;;;;;;;7.97;3.05;;;;;;;;;;5095497;28;20127;-88
2022/10/19 08:51:27;;;;;;;11.00;3.50;;;;;;;;;;5094811;28;20052;-88
2022/10/19 08:53:58;;;;;;;11.15;2.83;;;;;;;;;;5095189;28;20101;-87
2022/10/19 08:56:31;;;;;;;6.47;2.60;;;;;;;;;;5094193;28;20050;-87
2022/10/19 08:59:23;;;;;;;9.73;2.90;;;;;;;;;;5094590;28;20044;-88
2022/10/19 09:01:53;;;;;;;8.63;2.22;;;;;;;;;;5094004;28;20055;-88
2022/10/19 09:04:24;;;;;;;7.45;2.58;;;;;;;;;;5082332;28;20087;-86
2022/10/19 09:07:00;;;;;;;9.95;3.17;;;;;;;;;;5089899;28;20096;-88
2022/10/19 09:09:31;;;;;;;13.38;3.05;;;;;;;;;;5081476;28;20056;-88
2022/10/19 09:12:04;;;;;;;7.70;2.75;;;;;;;;;;5088582;28;20514;-88
2022/10/19 09:14:35;;;;;;;6.47;2.50;;;;;;;;;;5092953;28;20131;-88
2022/10/19 09:17:07;;;;;;;5.63;1.83;;;;;;;;;;5073708;28;20044;-86
2022/10/19 09:19:35;;;;;;;9.57;2.63;;;;;;;;;;5083836;28;20565;-87
2022/10/19 09:22:06;;;;;;;8.70;2.50;;;;;;;;;;5072109;28;20143;-87
2022/10/19 09:24:43;;;;;;;7.43;3.15;;;;;;;;;;5072767;28;20477;-88
2022/10/19 09:27:16;;;;;;;7.95;3.28;;;;;;;;;;5090407;28;20510;-89
2022/10/19 09:29:47;;;;;;;7.90;1.85;;;;;;;;;;5088170;28;20127;-87
2022/10/19 09:32:18;;;;;;;12.13;2.15;;;;;;;;;;5092633;28;20052;-87
2022/10/19 09:34:50;;;;;;;7.60;2.35;;;;;;;;;;5094578;28;20044;-87
2022/10/19 09:37:19;;;;;;;8.00;2.55;;;;;;;;;;5083086;28;20044;-87
2022/10/19 09:39:53;;;;;;;;;;;;;;;;;;5094246;28;20047;-87
2022/10/19 09:42:28;;;;;;;7.28;2.65;;;;;;;;;;5090844;28;19939;-87
2022/10/19 09:44:57;;;;;;;4.20;1.83;;;;;;;;;;5081543;28;20048;-86
2022/10/19 09:47:35;;;;;;;6.63;2.38;;;;;;;;;;5093074;28;20446;-87
2022/10/19 09:50:09;;;;;;;2.60;1.50;;;;;;;;;;5094518;28;20126;-87
2022/10/19 09:52:38;;;;;;;4.63;1.98;;;;;;;;;;5091822;28;20079;-87
2022/10/19 09:55:08;;;;;;;3.35;2.28;;;;;;;;;;5086784;28;20055;-86
2022/10/19 09:57:43;;;;;;;5.55;1.90;;;;;;;;;;5086526;28;20044;-87
2022/10/19 10:00:18;;;;;;;3.65;1.77;;;;;;;;;;5080084;28;20549;-88
2022/10/19 10:02:49;;;;;;;6.03;2.28;;;;;;;;;;5091581;28;20127;-87
2022/10/19 10:05:18;;;;;;;7.03;2.45;;;;;;;;;;5089765;28;20052;-87
2022/10/19 10:07:46;;;;;;;6.70;2.42;;;;;;;;;;5092536;28;20079;-87
2022/10/19 10:10:21;;;;;;;4.60;1.95;;;;;;;;;;5086850;28;20040;-88
2022/10/19 10:12:55;;;;;;;5.68;2.10;;;;;;;;;;5088096;28;20048;-87
2022/10/19 10:15:25;;;;;;;5.35;1.92;;;;;;;;;;5094019;28;20048;-85
2022/10/19 10:17:53;;;;;;;5.32;2.05;;;;;;;;;;5082629;28;20048;-87
2022/10/19 10:20:26;;;;;;;7.43;2.20;;;;;;;;;;5093669;28;20110;-88
2022/10/19 10:22:57;;;;;;;3.10;1.73;;;;;;;;;;5092071;28;20048;-88
2022/10/19 10:25:27;;;;;;;5.43;2.33;;;;;;;;;;5073493;28;20353;-87
2022/10/19 10:27:58;;;;;;;4.90;2.03;;;;;;;;;;5087116;28;20510;-87
2022/10/19 10:30:27;;;;;;;2.97;1.73;;;;;;;;;;5082085;28;20135;-88
2022/10/19 10:32:56;;;;;;;7.57;2.70;;;;;;;;;;5089412;28;20048;-88
2022/10/19 10:35:47;;;;;;;7.60;3.30;;;;;;;;;;5093587;28;20079;-87
2022/10/19 10:38:17;;;;;;;6.82;3.17;;;;;;;;;;5093343;28;20052;-88
2022/10/19 10:40:50;;;;;;;7.80;2.20;;;;;;;;;;5092078;28;20127;-88
2022/10/19 10:43:22;;;;;;;5.70;1.75;;;;;;;;;;5091207;28;20052;-86
2022/10/19 10:45:51;;;;;;;6.50;2.75;;;;;;;;;;5079292;28;20053;-89
2022/10/19 10:48:28;;;;;;;3.85;1.85;;;;;;;;;;5089389;28;20071;-89
2022/10/19 10:50:57;;;;;;;5.15;1.40;;;;;;;;;;5091955;28;20123;-88
2022/10/19 10:53:32;;;;;;;2.75;1.33;;;;;;;;;;5092913;28;20040;-88
2022/10/19 10:56:01;;;;;;;5.57;2.10;;;;;;;;;;5093074;28;20066;-88
2022/10/19 10:58:36;;;;;;;2.75;1.40;;;;;;;;;;5092116;28;20613;-87
2022/10/19 11:01:06;;;;;;;3.60;1.80;;;;;;;;;;5083922;28;20150;-88
2022/10/19 11:03:36;;;;;;;4.53;1.58;;;;;;;;;;5079351;28;20055;-87
2022/10/19 11:06:05;;;;;;;3.47;1.05;;;;;;;;;;5075536;28;20083;-89
2022/10/19 11:08:36;;;;;;;2.10;1.33;;;;;;;;;;5089538;28;20044;-89
2022/10/19 11:11:07;;;;;;;3.25;1.30;;;;;;;;;;5092433;28;20092;-88
2022/10/19 11:13:42;;;;;;;2.20;0.82;;;;;;;;;;5092061;28;20079;-86
2022/10/19 11:16:13;;;;;;;1.95;0.85;;;;;;;;;;5089792;28;20048;-88
2022/10/19 11:18:42;;;;;;;3.75;0.93;;;;;;;;;;5081957;28;20059;-87
2022/10/19 11:21:12;;;;;;;2.22;1.02;;;;;;;;;;5090884;28;20487;-88
2022/10/19 11:23:45;;;;;;;2.80;1.00;;;;;;;;;;5092462;28;20059;-92
2022/10/19 11:26:19;;;;;;;2.38;1.15;;;;;;;;;;5092610;28;20052;-88
2022/10/19 11:28:55;;;;;;;1.02;0.63;;;;;;;;;;5087550;28;20425;-88
2022/10/19 11:31:28;;;;;;;1.38;0.60;;;;;;;;;;5091725;28;20052;-87
2022/10/19 11:34:03;;;;;;;1.83;0.77;;;;;;;;;;5092637;28;20055;-88
2022/10/19 11:36:46;;;;;;;1.63;0.57;;;;;;;;;;5087839;28;20052;-88
2022/10/19 11:39:22;;;;;;;1.23;0.88;;;;;;;;;;5077061;28;20124;-88
2022/10/19 11:41:55;;;;;;;2.58;1.13;;;;;;;;;;5087767;28;20040;-87
2022/10/19 11:44:33;;;;;;;4.05;1.30;;;;;;;;;;5084377;28;20048;-87
2022/10/19 11:47:12;;;;;;;1.27;0.75;;;;;;;;;;5083463;28;20093;-85
2022/10/19 11:49:45;;;;;;;4.00;1.20;;;;;;;;;;5074737;28;20102;-88
2022/10/19 11:52:17;;;;;;;1.63;0.70;;;;;;;;;;5082488;28;20048;-88
2022/10/19 11:54:55;;;;;;;1.35;0.88;;;;;;;;;;5079819;28;20051;-90
2022/10/19 11:57:24;;;;;;;2.00;1.00;;;;;;;;;;5079229;28;20358;-88
2022/10/19 11:59:59;;;;;;;1.60;0.80;;;;;;;;;;5078690;28;20071;-89
2022/10/19 12:02:57;;;;;;;1.83;1.00;;;;;;;;;;5082121;28;20056;-90
2022/10/19 12:05:33;;;;;;;1.52;0.75;;;;;;;;;;5078588;28;20496;-90
2022/10/19 12:08:07;;;;;;;2.88;1.00;;;;;;;;;;5082496;28;20135;-88
2022/10/19 12:10:39;;;;;;;1.37;0.83;;;;;;;;;;5085324;28;20060;-89
2022/10/19 12:13:10;;;;;;;2.15;1.10;;;;;;;;;;5072336;28;20469;-89
2022/10/19 12:15:43;;;;;;;2.78;1.35;;;;;;;;;;5078576;28;20041;-89
2022/10/19 12:18:14;;;;;;;5.63;2.30;;;;;;;;;;5073096;28;20052;-89
2022/10/19 12:20:45;;;;;;;5.88;2.45;;;;;;;;;;5073815;28;20048;-88
2022/10/19 12:23:21;;;;;;;2.75;1.60;;;;;;;;;;5081221;28;20048;-88
2022/10/19 12:25:50;;;;;;;4.53;2.88;;;;;;;;;;5088088;28;20047;-88
2022/10/19 12:28:22;;;;;;;2.00;1.23;;;;;;;;;;5078745;28;20083;-88
2022/10/19 12:30:52;;;;;;;2.05;1.13;;;;;;;;;;5089206;28;20047;-87
2022/10/19 12:33:24;;;;;;;4.63;0.88;;;;;;;;;;5081021;28;20131;-87
2022/10/19 12:36:07;;;;;;;2.53;1.05;;;;;;;;;;5080754;28;20052;-85
2022/10/19 12:38:40;;;;;;;1.90;0.98;;;;;;;;;;5080266;28;20054;-88
2022/10/19 12:41:16;;;;;;;2.40;0.95;;;;;;;;;;5079230;28;20052;-88
2022/10/19 12:43:52;;;;;;;1.88;1.13;;;;;;;;;;5078952;28;20082;-88
2022/10/19 12:46:26;;;;;;;3.10;1.55;;;;;;;;;;5082567;28;20503;-87
2022/10/19 12:49:15;;;;;;;2.90;1.58;;;;;;;;;;5075712;28;20450;-88
2022/10/19 12:51:47;;;;;;;2.35;1.52;;;;;;;;;;5083212;28;20079;-88
2022/10/19 12:54:16;;;;;;;3.13;1.63;;;;;;;;;;5075820;28;20429;-88
2022/10/19 12:56:49;;;;;;;3.45;1.85;;;;;;;;;;5078326;28;20403;-89
2022/10/19 12:59:23;;;;;;;4.68;1.90;;;;;;;;;;5077143;28;20162;-88
2022/10/19 13:01:55;;;;;;;2.85;1.33;;;;;;;;;;5075444;28;20056;-88
2022/10/19 13:04:24;;;;;;;1.60;0.93;;;;;;;;;;5073218;28;20052;-89
2022/10/19 13:07:00;;;;;;;3.85;1.63;;;;;;;;;;5075297;28;20070;-88
2022/10/19 13:09:32;;;;;;;6.53;2.25;;;;;;;;;;5085126;28;20484;-87
2022/10/19 13:12:20;;;;;;;3.47;1.75;;;;;;;;;;5073954;28;20075;-89
2022/10/19 13:15:01;;;;;;;3.78;1.30;;;;;;;;;;5075016;28;20141;-88
2022/10/19 13:17:42;;;;;;;2.42;1.05;;;;;;;;;;5085557;28;20044;-88
2022/10/19 13:20:32;;;;;;;4.50;1.60;;;;;;;;;;5083048;28;20037;-89
2022/10/19 13:23:16;;;;;;;2.70;1.40;;;;;;;;;;5080327;28;20040;-88
2022/10/19 13:25:44;;;;;;;3.17;1.25;;;;;;;;;;5084305;28;20408;-87
2022/10/19 13:28:37;;;;;;;3.35;1.20;;;;;;;;;;5075029;28;20044;-89
2022/10/19 13:31:23;;;;;;;2.25;1.30;;;;;;;;;;5066690;28;20047;-87
2022/10/19 13:33:53;;;;;;;5.55;2.10;;;;;;;;;;5090363;28;20424;-87
2022/10/19 13:36:23;;;;;;;2.05;1.23;;;;;;;;;;5094065;28;20056;-88
2022/10/19 13:39:12;;;;;;;2.95;1.65;;;;;;;;;;5087354;28;20492;-87
2022/10/19 13:41:51;;;;;;;3.55;1.70;;;;;;;;;;5073489;28;20060;-88
2022/10/19 13:44:21;;;;;;;4.03;2.22;;;;;;;;;;5091441;28;20119;-88
2022/10/19 13:46:55;;;;;;;5.95;1.60;;;;;;;;;;5084028;28;20060;-88
2022/10/19 13:49:41;;;;;;;2.13;1.25;;;;;;;;;;5088193;28;20048;-88
2022/10/19 13:52:22;;;;;;;2.10;1.17;;;;;;;;;;5083184;28;20048;-88
2022/10/19 13:55:00;;;;;;;5.45;1.90;;;;;;;;;;5093966;28;20043;-88
2022/10/19 13:57:33;;;;;;;3.05;1.48;;;;;;;;;;5093416;28;20048;-88
2022/10/19 14:00:05;;;;;;;2.30;1.38;;;;;;;;;;5085816;28;20044;-87
2022/10/19 14:02:52;;;;;;;3.90;1.70;;;;;;;;;;5086431;28;20078;-88
2022/10/19 14:05:27;;;;;;;2.08;1.30;;;;;;;;;;5079567;28;20435;-88
2022/10/19 14:08:04;;;;;;;2.50;1.38;;;;;;;;;;5080899;28;20131;-88
2022/10/19 14:10:32;;;;;;;3.97;1.83;;;;;;;;;;5070143;28;20101;-88
2022/10/19 14:13:21;;;;;;;2.88;1.50;;;;;;;;;;5070627;28;20051;-90
2022/10/19 14:15:53;;;;;;;4.07;1.50;;;;;;;;;;5077364;28;20070;-90
2022/10/19 14:18:25;;;;;;;2.67;1.38;;;;;;;;;;5078088;28;20127;-90
2022/10/19 14:20:58;;;;;;;4.38;1.30;;;;;;;;;;5081649;28;20060;-90
2022/10/19 14:23:28;;;;;;;4.32;1.45;;;;;;;;;;5072390;28;20059;-89
2022/10/19 14:25:59;;;;;;;1.80;1.00;;;;;;;;;;5069443;28;20094;-89
2022/10/19 14:28:28;;;;;;;4.38;1.65;;;;;;;;;;5079591;28;20080;-89
2022/10/19 14:30:58;;;;;;;4.28;1.10;;;;;;;;;;5087608;28;20067;-88
2022/10/19 14:33:27;;;;;;;3.95;1.70;;;;;;;;;;5070226;28;20553;-88
2022/10/19 14:35:56;;;;;;;2.47;1.20;;;;;;;;;;5078335;28;20062;-90
2022/10/19 14:38:27;;;;;;;3.72;1.95;;;;;;;;;;5077594;28;20449;-86
2022/10/19 14:40:57;;;;;;;3.05;1.40;;;;;;;;;;5080289;28;20087;-87
2022/10/19 14:43:26;;;;;;;2.30;1.38;;;;;;;;;;5074050;28;20087;-88
2022/10/19 14:46:13;;;;;;;2.28;1.15;;;;;;;;;;5077252;28;20802;-87
2022/10/19 14:48:44;;;;;;;1.70;0.88;;;;;;;;;;5079843;28;20040;-87
2022/10/19 14:51:20;;;;;;;1.08;0.85;;;;;;;;;;5076318;28;20040;-87
2022/10/19 14:53:50;;;;;;;0.60;0.50;;;;;;;;;;5074362;28;20044;-88
2022/10/19 14:56:22;;;;;;;2.55;0.85;;;;;;;;;;5076057;28;20044;-88
2022/10/19 14:58:52;;;;;;;2.10;0.88;;;;;;;;;;5075209;28;20149;-87
2022/10/19 15:01:21;;;;;;;6.70;1.00;;;;;;;;;;5071647;28;20048;-89
2022/10/19 15:03:50;;;;;;;2.03;0.73;;;;;;;;;;5070667;28;20052;-89
2022/10/19 15:06:21;;;;;;;1.98;1.10;;;;;;;;;;5065164;28;20048;-87
2022/10/19 15:08:51;;;;;;;0.40;0.40;;;;;;;;;;5078571;28;20305;-87
2022/10/19 15:11:27;;;;;;;1.92;0.68;;;;;;;;;;5078295;28;20396;-88
2022/10/19 15:13:57;;;;;;;2.08;1.10;;;;;;;;;;5067882;28;20048;-89